sensor_id;sensor_type;location;lat;lon;timestamp;temperature;humidity
13326;DHT22;6732;51.044;3.746;2022-07-15T00:00:38;20.30;95.10
13326;DHT22;6732;51.044;3.746;2022-07-15T00:03:05;20.30;95.00
13326;DHT22;6732;51.044;3.746;2022-07-15T00:05:31;20.20;94.90
13326;DHT22;6732;51.044;3.746;2022-07-15T00:07:57;20.20;94.80
13326;DHT22;6732;51.044;3.746;2022-07-15T00:10:27;20.20;94.70
13326;DHT22;6732;51.044;3.746;2022-07-15T00:12:55;20.20;94.70
13326;DHT22;6732;51.044;3.746;2022-07-15T00:15:24;20.20;94.80
13326;DHT22;6732;51.044;3.746;2022-07-15T00:17:51;20.20;95.00
13326;DHT22;6732;51.044;3.746;2022-07-15T00:20:18;20.10;95.20
13326;DHT22;6732;51.044;3.746;2022-07-15T00:22:45;20.10;95.30
13326;DHT22;6732;51.044;3.746;2022-07-15T00:25:12;20.10;95.30
13326;DHT22;6732;51.044;3.746;2022-07-15T00:27:59;20.10;95.30
13326;DHT22;6732;51.044;3.746;2022-07-15T00:30:31;20.00;95.40
13326;DHT22;6732;51.044;3.746;2022-07-15T00:32:57;20.00;95.30
13326;DHT22;6732;51.044;3.746;2022-07-15T00:35:24;20.00;95.40
13326;DHT22;6732;51.044;3.746;2022-07-15T00:37:50;20.00;95.50
13326;DHT22;6732;51.044;3.746;2022-07-15T00:40:16;20.00;95.60
13326;DHT22;6732;51.044;3.746;2022-07-15T00:42:42;20.00;95.40
13326;DHT22;6732;51.044;3.746;2022-07-15T00:45:19;20.00;95.50
13326;DHT22;6732;51.044;3.746;2022-07-15T00:47:53;19.90;95.60
13326;DHT22;6732;51.044;3.746;2022-07-15T00:50:21;19.90;95.70
13326;DHT22;6732;51.044;3.746;2022-07-15T00:53:10;19.90;95.70
13326;DHT22;6732;51.044;3.746;2022-07-15T00:55:42;19.90;95.80
13326;DHT22;6732;51.044;3.746;2022-07-15T00:58:13;19.90;95.80
13326;DHT22;6732;51.044;3.746;2022-07-15T01:00:42;19.80;95.90
13326;DHT22;6732;51.044;3.746;2022-07-15T01:03:09;19.80;95.80
13326;DHT22;6732;51.044;3.746;2022-07-15T01:05:36;19.80;95.90
13326;DHT22;6732;51.044;3.746;2022-07-15T01:08:03;19.70;95.90
13326;DHT22;6732;51.044;3.746;2022-07-15T01:10:29;19.70;96.00
13326;DHT22;6732;51.044;3.746;2022-07-15T01:12:55;19.70;96.00
13326;DHT22;6732;51.044;3.746;2022-07-15T01:15:21;19.70;96.00
13326;DHT22;6732;51.044;3.746;2022-07-15T01:17:47;19.70;96.40
13326;DHT22;6732;51.044;3.746;2022-07-15T01:20:14;19.70;96.00
13326;DHT22;6732;51.044;3.746;2022-07-15T01:22:40;19.60;96.10
13326;DHT22;6732;51.044;3.746;2022-07-15T01:25:06;19.60;96.00
13326;DHT22;6732;51.044;3.746;2022-07-15T01:27:33;19.60;96.10
13326;DHT22;6732;51.044;3.746;2022-07-15T01:29:59;19.60;96.20
13326;DHT22;6732;51.044;3.746;2022-07-15T01:32:26;19.60;96.20
13326;DHT22;6732;51.044;3.746;2022-07-15T01:34:52;19.50;96.20
13326;DHT22;6732;51.044;3.746;2022-07-15T01:37:19;19.50;96.10
13326;DHT22;6732;51.044;3.746;2022-07-15T01:39:45;19.50;96.20
13326;DHT22;6732;51.044;3.746;2022-07-15T01:42:11;19.50;96.30
13326;DHT22;6732;51.044;3.746;2022-07-15T01:44:36;19.50;96.30
13326;DHT22;6732;51.044;3.746;2022-07-15T01:47:03;19.50;96.30
13326;DHT22;6732;51.044;3.746;2022-07-15T01:49:29;19.40;96.20
13326;DHT22;6732;51.044;3.746;2022-07-15T01:51:59;19.40;96.30
13326;DHT22;6732;51.044;3.746;2022-07-15T01:54:27;19.40;96.30
13326;DHT22;6732;51.044;3.746;2022-07-15T01:56:54;19.40;96.20
13326;DHT22;6732;51.044;3.746;2022-07-15T01:59:21;19.40;96.30
13326;DHT22;6732;51.044;3.746;2022-07-15T02:01:52;19.40;96.30
13326;DHT22;6732;51.044;3.746;2022-07-15T02:04:18;19.40;96.20
13326;DHT22;6732;51.044;3.746;2022-07-15T02:06:45;19.30;96.20
13326;DHT22;6732;51.044;3.746;2022-07-15T02:09:14;19.30;96.20
13326;DHT22;6732;51.044;3.746;2022-07-15T02:11:40;19.30;96.20
13326;DHT22;6732;51.044;3.746;2022-07-15T02:14:06;19.30;96.30
13326;DHT22;6732;51.044;3.746;2022-07-15T02:16:33;19.30;96.30
13326;DHT22;6732;51.044;3.746;2022-07-15T02:19:01;19.30;96.10
13326;DHT22;6732;51.044;3.746;2022-07-15T02:21:28;19.20;96.20
13326;DHT22;6732;51.044;3.746;2022-07-15T02:23:54;19.20;96.20
13326;DHT22;6732;51.044;3.746;2022-07-15T02:26:21;19.20;96.30
13326;DHT22;6732;51.044;3.746;2022-07-15T02:28:47;19.20;96.40
13326;DHT22;6732;51.044;3.746;2022-07-15T02:31:13;19.20;96.40
13326;DHT22;6732;51.044;3.746;2022-07-15T02:33:39;19.20;96.30
13326;DHT22;6732;51.044;3.746;2022-07-15T02:36:06;19.20;96.40
13326;DHT22;6732;51.044;3.746;2022-07-15T02:38:32;19.10;96.40
13326;DHT22;6732;51.044;3.746;2022-07-15T02:40:57;19.10;96.40
13326;DHT22;6732;51.044;3.746;2022-07-15T02:43:23;19.10;96.40
13326;DHT22;6732;51.044;3.746;2022-07-15T02:45:49;19.10;96.40
13326;DHT22;6732;51.044;3.746;2022-07-15T02:48:15;19.10;96.40
13326;DHT22;6732;51.044;3.746;2022-07-15T02:50:41;19.10;96.50
13326;DHT22;6732;51.044;3.746;2022-07-15T02:53:08;19.10;96.50
13326;DHT22;6732;51.044;3.746;2022-07-15T02:55:34;19.00;96.50
13326;DHT22;6732;51.044;3.746;2022-07-15T02:58:00;19.00;96.50
13326;DHT22;6732;51.044;3.746;2022-07-15T03:00:28;19.00;96.50
13326;DHT22;6732;51.044;3.746;2022-07-15T03:02:54;19.00;96.50
13326;DHT22;6732;51.044;3.746;2022-07-15T03:05:20;19.00;96.50
13326;DHT22;6732;51.044;3.746;2022-07-15T03:07:46;19.00;96.60
13326;DHT22;6732;51.044;3.746;2022-07-15T03:10:13;18.90;96.70
13326;DHT22;6732;51.044;3.746;2022-07-15T03:12:39;18.90;96.70
13326;DHT22;6732;51.044;3.746;2022-07-15T03:15:06;18.90;96.80
13326;DHT22;6732;51.044;3.746;2022-07-15T03:17:32;18.90;96.80
13326;DHT22;6732;51.044;3.746;2022-07-15T03:19:58;18.90;96.80
13326;DHT22;6732;51.044;3.746;2022-07-15T03:22:25;18.90;96.80
13326;DHT22;6732;51.044;3.746;2022-07-15T03:24:51;18.90;96.90
13326;DHT22;6732;51.044;3.746;2022-07-15T03:27:17;18.80;96.90
13326;DHT22;6732;51.044;3.746;2022-07-15T03:29:44;18.80;96.90
13326;DHT22;6732;51.044;3.746;2022-07-15T03:32:10;18.80;96.90
13326;DHT22;6732;51.044;3.746;2022-07-15T03:34:38;18.80;96.90
13326;DHT22;6732;51.044;3.746;2022-07-15T03:37:04;18.80;96.90
13326;DHT22;6732;51.044;3.746;2022-07-15T03:39:30;18.70;96.90
13326;DHT22;6732;51.044;3.746;2022-07-15T03:41:56;18.70;96.90
13326;DHT22;6732;51.044;3.746;2022-07-15T03:44:22;18.70;96.90
13326;DHT22;6732;51.044;3.746;2022-07-15T03:46:48;18.70;97.00
13326;DHT22;6732;51.044;3.746;2022-07-15T03:49:15;18.70;97.00
13326;DHT22;6732;51.044;3.746;2022-07-15T03:51:42;18.70;97.00
13326;DHT22;6732;51.044;3.746;2022-07-15T03:54:09;18.70;97.00
13326;DHT22;6732;51.044;3.746;2022-07-15T03:56:35;18.60;97.00
13326;DHT22;6732;51.044;3.746;2022-07-15T03:59:03;18.60;97.00
13326;DHT22;6732;51.044;3.746;2022-07-15T04:01:29;18.60;97.10
13326;DHT22;6732;51.044;3.746;2022-07-15T04:03:56;18.60;97.10
13326;DHT22;6732;51.044;3.746;2022-07-15T04:06:22;18.60;97.10
13326;DHT22;6732;51.044;3.746;2022-07-15T04:08:50;18.60;97.20
13326;DHT22;6732;51.044;3.746;2022-07-15T04:11:16;18.50;97.20
13326;DHT22;6732;51.044;3.746;2022-07-15T04:13:42;18.50;97.30
13326;DHT22;6732;51.044;3.746;2022-07-15T04:16:09;18.50;97.40
13326;DHT22;6732;51.044;3.746;2022-07-15T04:18:37;18.50;97.40
13326;DHT22;6732;51.044;3.746;2022-07-15T04:21:03;18.50;97.40
13326;DHT22;6732;51.044;3.746;2022-07-15T04:23:29;18.50;97.40
13326;DHT22;6732;51.044;3.746;2022-07-15T04:25:55;18.50;97.40
13326;DHT22;6732;51.044;3.746;2022-07-15T04:28:22;18.50;97.60
13326;DHT22;6732;51.044;3.746;2022-07-15T04:30:48;18.50;97.70
13326;DHT22;6732;51.044;3.746;2022-07-15T04:33:15;18.50;97.60
13326;DHT22;6732;51.044;3.746;2022-07-15T04:35:41;18.50;97.50
13326;DHT22;6732;51.044;3.746;2022-07-15T04:38:08;18.50;97.50
13326;DHT22;6732;51.044;3.746;2022-07-15T04:40:34;18.50;97.40
13326;DHT22;6732;51.044;3.746;2022-07-15T04:43:01;18.50;97.60
13326;DHT22;6732;51.044;3.746;2022-07-15T04:45:27;18.50;97.60
13326;DHT22;6732;51.044;3.746;2022-07-15T04:47:54;18.50;97.70
13326;DHT22;6732;51.044;3.746;2022-07-15T04:50:20;18.60;97.80
13326;DHT22;6732;51.044;3.746;2022-07-15T04:53:05;18.60;97.70
13326;DHT22;6732;51.044;3.746;2022-07-15T04:55:32;18.60;97.50
13326;DHT22;6732;51.044;3.746;2022-07-15T04:57:59;18.60;97.50
13326;DHT22;6732;51.044;3.746;2022-07-15T05:00:26;18.60;97.40
13326;DHT22;6732;51.044;3.746;2022-07-15T05:02:52;18.60;97.40
13326;DHT22;6732;51.044;3.746;2022-07-15T05:05:18;18.60;97.30
13326;DHT22;6732;51.044;3.746;2022-07-15T05:07:45;18.60;97.40
13326;DHT22;6732;51.044;3.746;2022-07-15T05:10:11;18.60;97.40
13326;DHT22;6732;51.044;3.746;2022-07-15T05:12:38;18.60;97.50
13326;DHT22;6732;51.044;3.746;2022-07-15T05:15:04;18.60;97.30
13326;DHT22;6732;51.044;3.746;2022-07-15T05:17:32;18.60;97.40
13326;DHT22;6732;51.044;3.746;2022-07-15T05:19:58;18.60;97.30
13326;DHT22;6732;51.044;3.746;2022-07-15T05:22:24;18.60;97.40
13326;DHT22;6732;51.044;3.746;2022-07-15T05:24:51;18.60;97.60
13326;DHT22;6732;51.044;3.746;2022-07-15T05:27:17;18.60;98.00
13326;DHT22;6732;51.044;3.746;2022-07-15T05:29:43;18.60;97.90
13326;DHT22;6732;51.044;3.746;2022-07-15T05:32:10;18.60;98.00
13326;DHT22;6732;51.044;3.746;2022-07-15T05:34:36;18.60;98.00
13326;DHT22;6732;51.044;3.746;2022-07-15T05:37:02;18.60;98.10
13326;DHT22;6732;51.044;3.746;2022-07-15T05:39:28;18.60;98.10
13326;DHT22;6732;51.044;3.746;2022-07-15T05:41:55;18.60;98.10
13326;DHT22;6732;51.044;3.746;2022-07-15T05:44:21;18.60;98.10
13326;DHT22;6732;51.044;3.746;2022-07-15T05:46:46;18.60;98.10
13326;DHT22;6732;51.044;3.746;2022-07-15T05:49:12;18.60;98.30
13326;DHT22;6732;51.044;3.746;2022-07-15T05:51:38;18.60;98.20
13326;DHT22;6732;51.044;3.746;2022-07-15T05:54:04;18.60;98.10
13326;DHT22;6732;51.044;3.746;2022-07-15T05:56:30;18.60;98.00
13326;DHT22;6732;51.044;3.746;2022-07-15T05:58:56;18.60;98.00
13326;DHT22;6732;51.044;3.746;2022-07-15T06:01:22;18.60;97.90
13326;DHT22;6732;51.044;3.746;2022-07-15T06:03:49;18.60;98.10
13326;DHT22;6732;51.044;3.746;2022-07-15T06:06:15;18.60;98.00
13326;DHT22;6732;51.044;3.746;2022-07-15T06:08:43;18.60;97.80
13326;DHT22;6732;51.044;3.746;2022-07-15T06:11:09;18.60;97.60
13326;DHT22;6732;51.044;3.746;2022-07-15T06:13:37;18.60;97.40
13326;DHT22;6732;51.044;3.746;2022-07-15T06:16:05;18.60;97.70
13326;DHT22;6732;51.044;3.746;2022-07-15T06:18:31;18.60;97.80
13326;DHT22;6732;51.044;3.746;2022-07-15T06:20:57;18.60;97.60
13326;DHT22;6732;51.044;3.746;2022-07-15T06:23:23;18.70;97.80
13326;DHT22;6732;51.044;3.746;2022-07-15T06:25:49;18.70;97.90
13326;DHT22;6732;51.044;3.746;2022-07-15T06:28:15;18.70;97.50
13326;DHT22;6732;51.044;3.746;2022-07-15T06:30:41;18.70;97.50
13326;DHT22;6732;51.044;3.746;2022-07-15T06:33:07;18.70;97.70
13326;DHT22;6732;51.044;3.746;2022-07-15T06:35:33;18.70;98.00
13326;DHT22;6732;51.044;3.746;2022-07-15T06:37:59;18.70;97.30
13326;DHT22;6732;51.044;3.746;2022-07-15T06:40:25;18.70;97.20
13326;DHT22;6732;51.044;3.746;2022-07-15T06:42:51;18.70;97.20
13326;DHT22;6732;51.044;3.746;2022-07-15T06:45:17;18.80;97.10
13326;DHT22;6732;51.044;3.746;2022-07-15T06:47:43;18.70;96.90
13326;DHT22;6732;51.044;3.746;2022-07-15T06:50:10;18.80;96.70
13326;DHT22;6732;51.044;3.746;2022-07-15T06:52:36;18.80;96.90
13326;DHT22;6732;51.044;3.746;2022-07-15T06:55:03;18.80;96.90
13326;DHT22;6732;51.044;3.746;2022-07-15T06:57:29;18.80;96.60
13326;DHT22;6732;51.044;3.746;2022-07-15T06:59:55;18.80;96.50
13326;DHT22;6732;51.044;3.746;2022-07-15T07:02:22;18.80;96.80
13326;DHT22;6732;51.044;3.746;2022-07-15T07:04:48;18.80;97.00
13326;DHT22;6732;51.044;3.746;2022-07-15T07:07:14;18.80;96.90
13326;DHT22;6732;51.044;3.746;2022-07-15T07:09:41;18.80;96.80
13326;DHT22;6732;51.044;3.746;2022-07-15T07:12:07;18.80;96.40
13326;DHT22;6732;51.044;3.746;2022-07-15T07:14:34;18.80;96.50
13326;DHT22;6732;51.044;3.746;2022-07-15T07:17:00;18.80;96.20
13326;DHT22;6732;51.044;3.746;2022-07-15T07:19:26;18.90;95.90
13326;DHT22;6732;51.044;3.746;2022-07-15T07:21:52;18.90;95.70
13326;DHT22;6732;51.044;3.746;2022-07-15T07:24:18;18.90;95.80
13326;DHT22;6732;51.044;3.746;2022-07-15T07:26:44;18.90;95.60
13326;DHT22;6732;51.044;3.746;2022-07-15T07:29:10;18.90;95.40
13326;DHT22;6732;51.044;3.746;2022-07-15T07:31:38;19.00;95.50
13326;DHT22;6732;51.044;3.746;2022-07-15T07:34:04;18.90;95.50
13326;DHT22;6732;51.044;3.746;2022-07-15T07:36:30;19.00;95.70
13326;DHT22;6732;51.044;3.746;2022-07-15T07:38:56;19.00;95.70
13326;DHT22;6732;51.044;3.746;2022-07-15T07:41:22;19.00;95.90
13326;DHT22;6732;51.044;3.746;2022-07-15T07:43:48;19.00;95.60
13326;DHT22;6732;51.044;3.746;2022-07-15T07:46:14;19.00;95.10
13326;DHT22;6732;51.044;3.746;2022-07-15T07:48:42;19.00;95.20
13326;DHT22;6732;51.044;3.746;2022-07-15T07:51:08;19.10;95.10
13326;DHT22;6732;51.044;3.746;2022-07-15T07:53:52;19.10;95.20
13326;DHT22;6732;51.044;3.746;2022-07-15T07:56:18;19.10;95.20
13326;DHT22;6732;51.044;3.746;2022-07-15T07:58:44;19.20;95.00
13326;DHT22;6732;51.044;3.746;2022-07-15T08:01:10;19.20;95.20
13326;DHT22;6732;51.044;3.746;2022-07-15T08:03:37;19.20;95.70
13326;DHT22;6732;51.044;3.746;2022-07-15T08:06:09;19.30;95.00
13326;DHT22;6732;51.044;3.746;2022-07-15T08:08:49;19.30;94.90
13326;DHT22;6732;51.044;3.746;2022-07-15T08:11:15;19.40;94.20
13326;DHT22;6732;51.044;3.746;2022-07-15T08:13:45;19.40;93.50
13326;DHT22;6732;51.044;3.746;2022-07-15T08:16:11;19.50;93.50
13326;DHT22;6732;51.044;3.746;2022-07-15T08:18:37;19.50;93.30
13326;DHT22;6732;51.044;3.746;2022-07-15T08:21:04;19.60;93.30
13326;DHT22;6732;51.044;3.746;2022-07-15T08:23:31;19.60;92.80
13326;DHT22;6732;51.044;3.746;2022-07-15T08:25:58;19.70;92.50
13326;DHT22;6732;51.044;3.746;2022-07-15T08:28:24;19.70;92.70
13326;DHT22;6732;51.044;3.746;2022-07-15T08:30:50;19.70;92.50
13326;DHT22;6732;51.044;3.746;2022-07-15T08:33:16;19.80;92.80
13326;DHT22;6732;51.044;3.746;2022-07-15T08:35:42;19.80;93.10
13326;DHT22;6732;51.044;3.746;2022-07-15T08:38:09;19.90;92.40
13326;DHT22;6732;51.044;3.746;2022-07-15T08:40:37;19.90;92.30
13326;DHT22;6732;51.044;3.746;2022-07-15T08:43:08;20.00;92.10
13326;DHT22;6732;51.044;3.746;2022-07-15T08:45:36;20.00;92.30
13326;DHT22;6732;51.044;3.746;2022-07-15T08:48:06;20.10;92.40
13326;DHT22;6732;51.044;3.746;2022-07-15T08:50:34;20.10;92.00
13326;DHT22;6732;51.044;3.746;2022-07-15T08:53:00;20.10;91.50
13326;DHT22;6732;51.044;3.746;2022-07-15T08:55:27;20.20;91.50
13326;DHT22;6732;51.044;3.746;2022-07-15T08:57:54;20.20;91.70
13326;DHT22;6732;51.044;3.746;2022-07-15T09:00:21;20.30;91.70
13326;DHT22;6732;51.044;3.746;2022-07-15T09:02:49;20.30;91.30
13326;DHT22;6732;51.044;3.746;2022-07-15T09:08:06;20.40;91.30
13326;DHT22;6732;51.044;3.746;2022-07-15T09:13:34;20.50;92.00
13326;DHT22;6732;51.044;3.746;2022-07-15T09:16:04;20.60;92.00
13326;DHT22;6732;51.044;3.746;2022-07-15T09:18:34;20.60;91.80
13326;DHT22;6732;51.044;3.746;2022-07-15T09:21:01;20.60;91.60
13326;DHT22;6732;51.044;3.746;2022-07-15T09:23:29;20.60;91.20
13326;DHT22;6732;51.044;3.746;2022-07-15T09:26:00;20.70;91.30
13326;DHT22;6732;51.044;3.746;2022-07-15T09:28:45;20.70;91.00
13326;DHT22;6732;51.044;3.746;2022-07-15T09:31:11;20.80;90.80
13326;DHT22;6732;51.044;3.746;2022-07-15T09:34:01;20.80;91.20
13326;DHT22;6732;51.044;3.746;2022-07-15T09:36:32;20.90;91.10
13326;DHT22;6732;51.044;3.746;2022-07-15T09:39:01;20.90;91.20
13326;DHT22;6732;51.044;3.746;2022-07-15T09:41:35;20.90;91.10
13326;DHT22;6732;51.044;3.746;2022-07-15T09:44:08;21.00;91.50
13326;DHT22;6732;51.044;3.746;2022-07-15T09:46:55;21.00;91.40
13326;DHT22;6732;51.044;3.746;2022-07-15T09:51:54;21.10;91.30
13326;DHT22;6732;51.044;3.746;2022-07-15T09:54:22;21.10;91.40
13326;DHT22;6732;51.044;3.746;2022-07-15T09:56:49;21.10;91.20
13326;DHT22;6732;51.044;3.746;2022-07-15T09:59:16;21.20;91.50
13326;DHT22;6732;51.044;3.746;2022-07-15T10:01:43;21.20;91.40
13326;DHT22;6732;51.044;3.746;2022-07-15T10:04:10;21.20;91.40
13326;DHT22;6732;51.044;3.746;2022-07-15T10:06:38;21.20;91.70
13326;DHT22;6732;51.044;3.746;2022-07-15T10:09:07;21.20;91.20
13326;DHT22;6732;51.044;3.746;2022-07-15T10:11:36;21.30;90.70
13326;DHT22;6732;51.044;3.746;2022-07-15T10:26:00;21.50;90.60
13326;DHT22;6732;51.044;3.746;2022-07-15T10:39:21;21.60;90.20
13326;DHT22;6732;51.044;3.746;2022-07-15T10:41:58;21.60;90.00
13326;DHT22;6732;51.044;3.746;2022-07-15T10:44:32;21.60;90.60
13326;DHT22;6732;51.044;3.746;2022-07-15T10:47:24;21.60;91.20
13326;DHT22;6732;51.044;3.746;2022-07-15T10:49:51;21.60;91.40
13326;DHT22;6732;51.044;3.746;2022-07-15T10:52:28;21.60;91.60
13326;DHT22;6732;51.044;3.746;2022-07-15T11:00:33;21.60;91.70
13326;DHT22;6732;51.044;3.746;2022-07-15T11:05:30;21.70;91.10
13326;DHT22;6732;51.044;3.746;2022-07-15T11:07:57;21.70;91.10
13326;DHT22;6732;51.044;3.746;2022-07-15T11:10:23;21.70;91.20
13326;DHT22;6732;51.044;3.746;2022-07-15T11:15:20;21.70;91.80
13326;DHT22;6732;51.044;3.746;2022-07-15T11:17:52;21.70;91.60
13326;DHT22;6732;51.044;3.746;2022-07-15T11:20:21;21.80;90.70
13326;DHT22;6732;51.044;3.746;2022-07-15T11:22:52;21.80;91.00
13326;DHT22;6732;51.044;3.746;2022-07-15T11:25:22;21.80;91.30
13326;DHT22;6732;51.044;3.746;2022-07-15T11:27:56;21.80;91.40
13326;DHT22;6732;51.044;3.746;2022-07-15T11:30:24;21.80;91.50
13326;DHT22;6732;51.044;3.746;2022-07-15T11:32:58;21.80;91.30
13326;DHT22;6732;51.044;3.746;2022-07-15T11:35:25;21.80;91.10
13326;DHT22;6732;51.044;3.746;2022-07-15T11:37:58;21.80;90.90
13326;DHT22;6732;51.044;3.746;2022-07-15T11:40:24;21.80;91.00
13326;DHT22;6732;51.044;3.746;2022-07-15T11:43:13;21.80;91.50
13326;DHT22;6732;51.044;3.746;2022-07-15T11:45:58;21.80;91.40
13326;DHT22;6732;51.044;3.746;2022-07-15T11:48:24;21.80;91.50
13326;DHT22;6732;51.044;3.746;2022-07-15T11:50:56;21.80;91.50
13326;DHT22;6732;51.044;3.746;2022-07-15T11:53:24;21.90;91.10
13326;DHT22;6732;51.044;3.746;2022-07-15T11:55:57;21.90;91.60
13326;DHT22;6732;51.044;3.746;2022-07-15T11:58:28;21.90;91.70
13326;DHT22;6732;51.044;3.746;2022-07-15T12:00:55;21.90;91.70
13326;DHT22;6732;51.044;3.746;2022-07-15T12:03:21;21.90;91.40
13326;DHT22;6732;51.044;3.746;2022-07-15T12:06:06;22.00;91.60
13326;DHT22;6732;51.044;3.746;2022-07-15T12:08:49;22.00;91.30
13326;DHT22;6732;51.044;3.746;2022-07-15T12:11:26;22.00;91.50
13326;DHT22;6732;51.044;3.746;2022-07-15T12:14:00;22.00;91.60
13326;DHT22;6732;51.044;3.746;2022-07-15T12:16:45;22.00;91.90
13326;DHT22;6732;51.044;3.746;2022-07-15T12:19:25;22.00;91.90
13326;DHT22;6732;51.044;3.746;2022-07-15T12:21:55;22.00;91.50
13326;DHT22;6732;51.044;3.746;2022-07-15T12:24:35;22.10;91.60
13326;DHT22;6732;51.044;3.746;2022-07-15T12:27:02;22.10;91.40
13326;DHT22;6732;51.044;3.746;2022-07-15T12:29:31;22.10;91.60
13326;DHT22;6732;51.044;3.746;2022-07-15T12:32:08;22.10;91.70
13326;DHT22;6732;51.044;3.746;2022-07-15T12:40:00;22.10;91.10
13326;DHT22;6732;51.044;3.746;2022-07-15T12:47:32;22.20;90.70
13326;DHT22;6732;51.044;3.746;2022-07-15T12:50:03;22.20;90.40
13326;DHT22;6732;51.044;3.746;2022-07-15T12:52:35;22.30;90.50
13326;DHT22;6732;51.044;3.746;2022-07-15T12:55:20;22.30;90.20
13326;DHT22;6732;51.044;3.746;2022-07-15T12:57:47;22.30;90.60
13326;DHT22;6732;51.044;3.746;2022-07-15T13:00:23;22.30;91.00
13326;DHT22;6732;51.044;3.746;2022-07-15T13:03:18;22.30;90.40
13326;DHT22;6732;51.044;3.746;2022-07-15T13:05:47;22.40;90.70
13326;DHT22;6732;51.044;3.746;2022-07-15T13:08:18;22.40;90.80
13326;DHT22;6732;51.044;3.746;2022-07-15T13:10:47;22.40;90.90
13326;DHT22;6732;51.044;3.746;2022-07-15T13:13:15;22.50;90.50
13326;DHT22;6732;51.044;3.746;2022-07-15T13:15:43;22.50;90.00
13326;DHT22;6732;51.044;3.746;2022-07-15T13:18:09;22.50;90.40
13326;DHT22;6732;51.044;3.746;2022-07-15T13:20:36;22.50;90.60
13326;DHT22;6732;51.044;3.746;2022-07-15T13:23:02;22.60;90.70
13326;DHT22;6732;51.044;3.746;2022-07-15T13:25:29;22.60;90.80
13326;DHT22;6732;51.044;3.746;2022-07-15T13:27:56;22.60;90.50
13326;DHT22;6732;51.044;3.746;2022-07-15T13:30:33;22.60;90.80
13326;DHT22;6732;51.044;3.746;2022-07-15T13:32:59;22.70;90.40
13326;DHT22;6732;51.044;3.746;2022-07-15T13:35:25;22.70;90.30
13326;DHT22;6732;51.044;3.746;2022-07-15T13:37:51;22.70;90.00
13326;DHT22;6732;51.044;3.746;2022-07-15T13:40:17;22.70;88.80
13326;DHT22;6732;51.044;3.746;2022-07-15T13:42:43;22.70;88.80
13326;DHT22;6732;51.044;3.746;2022-07-15T13:45:11;22.80;90.00
13326;DHT22;6732;51.044;3.746;2022-07-15T13:47:38;22.80;90.00
13326;DHT22;6732;51.044;3.746;2022-07-15T13:50:05;22.80;89.80
13326;DHT22;6732;51.044;3.746;2022-07-15T13:52:52;22.80;90.40
13326;DHT22;6732;51.044;3.746;2022-07-15T13:55:19;22.80;90.40
13326;DHT22;6732;51.044;3.746;2022-07-15T13:57:46;22.80;90.20
13326;DHT22;6732;51.044;3.746;2022-07-15T14:00:14;22.90;89.50
13326;DHT22;6732;51.044;3.746;2022-07-15T14:02:43;22.90;89.90
13326;DHT22;6732;51.044;3.746;2022-07-15T14:05:11;22.90;89.90
13326;DHT22;6732;51.044;3.746;2022-07-15T14:07:37;23.00;89.30
13326;DHT22;6732;51.044;3.746;2022-07-15T14:10:04;23.00;89.00
13326;DHT22;6732;51.044;3.746;2022-07-15T14:12:30;23.00;88.70
13326;DHT22;6732;51.044;3.746;2022-07-15T14:14:57;23.00;88.10
13326;DHT22;6732;51.044;3.746;2022-07-15T14:17:23;23.00;88.40
13326;DHT22;6732;51.044;3.746;2022-07-15T14:19:49;23.00;88.90
13326;DHT22;6732;51.044;3.746;2022-07-15T14:22:15;23.10;89.10
13326;DHT22;6732;51.044;3.746;2022-07-15T14:24:41;23.00;88.50
13326;DHT22;6732;51.044;3.746;2022-07-15T14:27:08;23.10;88.20
13326;DHT22;6732;51.044;3.746;2022-07-15T14:29:35;23.10;88.00
13326;DHT22;6732;51.044;3.746;2022-07-15T14:32:01;23.10;88.50
13326;DHT22;6732;51.044;3.746;2022-07-15T14:34:27;23.10;88.80
13326;DHT22;6732;51.044;3.746;2022-07-15T14:36:54;23.20;89.00
13326;DHT22;6732;51.044;3.746;2022-07-15T14:39:20;23.20;89.20
13326;DHT22;6732;51.044;3.746;2022-07-15T14:41:46;23.20;88.60
13326;DHT22;6732;51.044;3.746;2022-07-15T14:44:20;23.10;88.10
13326;DHT22;6732;51.044;3.746;2022-07-15T14:46:47;23.10;89.50
13326;DHT22;6732;51.044;3.746;2022-07-15T14:49:13;23.10;88.60
13326;DHT22;6732;51.044;3.746;2022-07-15T14:51:39;23.10;88.10
13326;DHT22;6732;51.044;3.746;2022-07-15T14:54:05;23.10;88.00
13326;DHT22;6732;51.044;3.746;2022-07-15T14:56:31;23.10;87.90
13326;DHT22;6732;51.044;3.746;2022-07-15T14:58:56;23.10;88.50
13326;DHT22;6732;51.044;3.746;2022-07-15T15:01:24;23.10;88.80
13326;DHT22;6732;51.044;3.746;2022-07-15T15:03:52;23.10;89.20
13326;DHT22;6732;51.044;3.746;2022-07-15T15:06:19;23.10;89.00
13326;DHT22;6732;51.044;3.746;2022-07-15T15:08:44;23.10;88.10
13326;DHT22;6732;51.044;3.746;2022-07-15T15:11:10;23.20;87.80
13326;DHT22;6732;51.044;3.746;2022-07-15T15:13:36;23.20;88.60
13326;DHT22;6732;51.044;3.746;2022-07-15T15:16:02;23.20;88.80
13326;DHT22;6732;51.044;3.746;2022-07-15T15:18:29;23.20;88.80
13326;DHT22;6732;51.044;3.746;2022-07-15T15:20:54;23.20;89.40
13326;DHT22;6732;51.044;3.746;2022-07-15T15:23:20;23.20;89.00
13326;DHT22;6732;51.044;3.746;2022-07-15T15:25:47;23.20;88.10
13326;DHT22;6732;51.044;3.746;2022-07-15T15:28:31;23.20;87.90
13326;DHT22;6732;51.044;3.746;2022-07-15T15:30:57;23.20;87.90
13326;DHT22;6732;51.044;3.746;2022-07-15T15:33:23;23.20;87.80
13326;DHT22;6732;51.044;3.746;2022-07-15T15:35:49;23.20;88.20
13326;DHT22;6732;51.044;3.746;2022-07-15T15:38:16;23.20;88.10
13326;DHT22;6732;51.044;3.746;2022-07-15T15:40:41;23.20;87.50
13326;DHT22;6732;51.044;3.746;2022-07-15T15:43:07;23.20;87.90
13326;DHT22;6732;51.044;3.746;2022-07-15T15:45:33;23.20;87.70
13326;DHT22;6732;51.044;3.746;2022-07-15T15:47:59;23.20;88.00
13326;DHT22;6732;51.044;3.746;2022-07-15T15:50:26;23.20;88.40
13326;DHT22;6732;51.044;3.746;2022-07-15T15:52:52;23.20;88.00
13326;DHT22;6732;51.044;3.746;2022-07-15T15:55:18;23.20;87.80
13326;DHT22;6732;51.044;3.746;2022-07-15T15:57:44;23.30;89.00
13326;DHT22;6732;51.044;3.746;2022-07-15T16:00:10;23.30;88.10
13326;DHT22;6732;51.044;3.746;2022-07-15T16:02:39;23.30;88.30
13326;DHT22;6732;51.044;3.746;2022-07-15T16:05:06;23.30;88.30
13326;DHT22;6732;51.044;3.746;2022-07-15T16:07:32;23.30;88.40
13326;DHT22;6732;51.044;3.746;2022-07-15T16:09:58;23.30;87.90
13326;DHT22;6732;51.044;3.746;2022-07-15T16:12:25;23.30;87.70
13326;DHT22;6732;51.044;3.746;2022-07-15T16:14:51;23.30;88.10
13326;DHT22;6732;51.044;3.746;2022-07-15T16:17:17;23.30;87.60
13326;DHT22;6732;51.044;3.746;2022-07-15T16:19:43;23.30;88.10
13326;DHT22;6732;51.044;3.746;2022-07-15T16:22:09;23.30;88.50
13326;DHT22;6732;51.044;3.746;2022-07-15T16:24:53;23.30;88.30
13326;DHT22;6732;51.044;3.746;2022-07-15T16:27:19;23.30;87.90
13326;DHT22;6732;51.044;3.746;2022-07-15T16:29:46;23.30;87.90
13326;DHT22;6732;51.044;3.746;2022-07-15T16:32:12;23.30;88.00
13326;DHT22;6732;51.044;3.746;2022-07-15T16:34:37;23.20;88.30
13326;DHT22;6732;51.044;3.746;2022-07-15T16:37:04;23.20;87.50
13326;DHT22;6732;51.044;3.746;2022-07-15T16:39:30;23.20;86.40
13326;DHT22;6732;51.044;3.746;2022-07-15T16:41:56;23.20;86.40